Tampa, FL

09:25 EDT le 16 septembre 2014 (GMT -0400)
The University of Tampa | Change Station
CLOSE
Current Station
Stations météorologiques personnelles
Location: Tampa, FL
Altitude: 30 ft
Stations météo à proximité

Alt. 30 ft 27.95 °N, 82.46 °W | Updated 2 seconds ago

Nuageux
Nuageux
82.5 ° F
Paraît 90 ° F
N
0.0
Vent Variable Vent de Nord
Gusts 6.0 mph

Aujourd'hui
Haut(e) -- | Bas -- ° F
--% Risque de précip.
Hier
Haut(e) -- | Bas -- ° F
Precip. -- pouce
7:15 AM 7:33 PM
Dernier quartier, 45% visible
Pression 30.08 pouce
Visibilité 9.0 Miles terrestres
Nuages Peu 1800 ft
Nuages épars 15000 ft
Nuageux 21000 ft
indice de chaleur 90 ° F
Point de rosée 75 ° F
Humidité 79%
Précipitations 0.00 pouce
Profondeur de la couche neigeuse Non disponible.
UV 1 sur 12
Pollen 6.70 sur 12
Qualité de l'air Non disponible.
Flu Activity Non disponible.
METAR KTPA 161253Z 03003KT 9SM FEW018 SCT150 BKN210 28/23 A3008 RMK AO2 SLP186 T02780228

More Conditions Fewer Conditions

Pression 30.08 pouce
Visibilité 9.0 Miles terrestres
Nuages Peu 1800 ft
Nuages épars 15000 ft
Nuageux 21000 ft
indice de chaleur 90 ° F
Point de rosée 75 ° F
Humidité 79%
Précipitations 0.00 pouce
Profondeur de la couche neigeuse Non disponible.
UV 1 sur 12
Pollen 6.70 sur 12
Qualité de l'air Non disponible.
Flu Activity Non disponible.
METAR KTPA 161253Z 03003KT 9SM FEW018 SCT150 BKN210 28/23 A3008 RMK AO2 SLP186 T02780228

More Conditions Fewer Conditions

10-Day Weather Forecast

Almanac

Astronomie

Sep. 16, 2014 Lever Coucher
Temps réel 07:15 EDT 19:33 EDT
Crépuscule civil 06:52 EDT 19:56 EDT
Crépuscule nautique 06:24 EDT 20:24 EDT
Crépuscule astronomique 05:56 EDT 20:51 EDT
Lune 00:45 EDT 14:34 EDT
Durée de lumière visible 13h 04m
Longueur du jour
12h 17m
Tomorrow will be 1m 39s shorter.
Dernier quartier, 45% of the Moon is Illuminated
Aujourd'hui
Dernier quartier
Sep 24
Nouveau
Oct 1
Premier quartier
Oct 8
Pleine lune
Oct 15
Dernier quartier

Extrêmes aujourd'hui

State Highs State Lows

Community

WunderPhotos

Upload Photos

1,753,759 Photos téléchargées !

Nearby

Épaisseur de neige

Station Depth Altitude
Pas de nouvelles chutes de neige

Activité sismique

Ville Distance Mag. Time & Date
No recent earthquake activity has been reported nearby.
Minimum magnitude displayed is 2.5.

Températures des eaux côtières

Lieu Température
St Petersburg, FL 87.1 ° F
Old Port Tampa, FL 84.9 ° F

Stations météo à proximité